createdAt,value
2024-02-27T00:00:55.096Z,9.10
2024-02-27T00:03:23.929Z,9.27
2024-02-27T00:05:51.457Z,9.03
2024-02-27T00:08:19.056Z,9.70
2024-02-27T00:10:46.670Z,11.23
2024-02-27T00:13:14.132Z,9.90
2024-02-27T00:15:42.036Z,10.57
2024-02-27T00:18:09.966Z,12.10
2024-02-27T00:20:39.093Z,11.00
2024-02-27T00:23:06.534Z,8.80
2024-02-27T00:25:33.959Z,8.37
2024-02-27T00:28:01.421Z,9.37
2024-02-27T00:30:28.913Z,10.43
2024-02-27T00:32:56.517Z,12.90
2024-02-27T00:35:24.063Z,11.47
2024-02-27T00:37:52.849Z,9.73
2024-02-27T00:40:20.304Z,11.80
2024-02-27T00:42:47.813Z,14.83
2024-02-27T00:45:15.360Z,13.70
2024-02-27T00:47:41.944Z,10.10
2024-02-27T00:50:10.653Z,12.90
2024-02-27T00:52:38.451Z,13.37
2024-02-27T00:55:07.768Z,11.00
2024-02-27T00:57:35.594Z,13.83
2024-02-27T01:00:09.548Z,17.03
2024-02-27T01:02:37.342Z,13.07
2024-02-27T01:05:05.246Z,11.40
2024-02-27T01:07:32.877Z,12.03
2024-02-27T01:10:00.680Z,12.83
2024-02-27T01:12:29.566Z,16.90
2024-02-27T01:14:57.107Z,11.57
2024-02-27T01:17:24.811Z,12.40
2024-02-27T01:19:52.427Z,12.27
2024-02-27T01:22:27.031Z,14.10
2024-02-27T01:24:54.509Z,13.23
2024-02-27T01:27:21.997Z,11.90
2024-02-27T01:29:51.920Z,10.90
2024-02-27T01:32:19.378Z,13.40
2024-02-27T01:34:47.014Z,13.07
2024-02-27T01:37:14.657Z,10.57
2024-02-27T01:39:42.198Z,11.27
2024-02-27T01:42:09.675Z,11.63
2024-02-27T01:44:37.207Z,10.67
2024-02-27T01:47:06.124Z,12.07
2024-02-27T01:49:34.608Z,10.70
2024-02-27T01:52:02.270Z,10.20
2024-02-27T01:54:30.035Z,10.70
2024-02-27T01:56:58.622Z,9.73
2024-02-27T01:59:26.568Z,9.33
2024-02-27T02:01:54.190Z,10.53
2024-02-27T02:04:23.060Z,10.23
2024-02-27T02:06:51.159Z,9.23
2024-02-27T02:09:18.755Z,11.07
2024-02-27T02:11:46.729Z,9.20
2024-02-27T02:14:14.466Z,9.40
2024-02-27T02:16:41.966Z,8.37
2024-02-27T02:19:09.572Z,11.20
2024-02-27T02:21:38.450Z,8.67
2024-02-27T02:24:06.604Z,9.70
2024-02-27T02:26:34.233Z,8.60
2024-02-27T02:29:01.853Z,8.27
2024-02-27T02:31:30.217Z,9.57
2024-02-27T02:33:57.855Z,9.13
2024-02-27T02:36:25.956Z,8.23
2024-02-27T02:38:54.926Z,8.30
2024-02-27T02:41:22.381Z,9.97
2024-02-27T02:43:49.839Z,7.87
2024-02-27T02:46:17.372Z,9.00
2024-02-27T02:48:44.984Z,11.03
2024-02-27T02:51:12.559Z,9.43
2024-02-27T02:53:40.191Z,10.40
2024-02-27T02:56:09.226Z,9.10
2024-02-27T02:58:36.736Z,9.20
2024-02-27T03:01:04.568Z,8.43
2024-02-27T03:03:32.096Z,8.90
2024-02-27T03:05:59.706Z,7.80
2024-02-27T03:08:27.204Z,8.07
2024-02-27T03:10:54.685Z,7.50
2024-02-27T03:13:23.573Z,8.00
2024-02-27T03:15:51.312Z,9.47
2024-02-27T03:18:19.046Z,8.60
2024-02-27T03:20:46.831Z,7.53
2024-02-27T03:23:14.263Z,12.10
2024-02-27T03:25:41.699Z,7.60
2024-02-27T03:28:09.086Z,9.40
2024-02-27T03:30:38.582Z,7.17
2024-02-27T03:33:06.271Z,9.80
2024-02-27T03:35:33.846Z,7.60
2024-02-27T03:38:01.291Z,6.80
2024-02-27T03:40:28.705Z,6.80
2024-02-27T03:42:56.348Z,7.67
2024-02-27T03:45:23.921Z,7.20
2024-02-27T03:47:52.859Z,7.43
2024-02-27T03:50:20.331Z,8.17
2024-02-27T03:52:47.788Z,6.60
2024-02-27T03:55:15.383Z,8.70
2024-02-27T03:57:42.818Z,9.83
2024-02-27T04:00:11.340Z,6.70
2024-02-27T04:02:38.809Z,11.10
2024-02-27T04:05:09.770Z,8.10
2024-02-27T04:07:37.634Z,9.13
2024-02-27T04:10:05.482Z,8.27
2024-02-27T04:12:33.040Z,6.57
2024-02-27T04:15:00.631Z,10.67
2024-02-27T04:17:28.106Z,8.70
2024-02-27T04:19:55.854Z,10.30
2024-02-27T04:22:24.724Z,7.60
2024-02-27T04:24:52.213Z,6.90
2024-02-27T04:27:19.747Z,6.63
2024-02-27T04:29:47.281Z,6.57
2024-02-27T04:32:15.764Z,7.27
2024-02-27T04:34:43.461Z,7.63
2024-02-27T04:37:11.000Z,8.20
2024-02-27T04:39:39.798Z,9.00
2024-02-27T04:42:07.568Z,9.30
2024-02-27T04:44:35.063Z,8.20
2024-02-27T04:47:02.510Z,12.10
2024-02-27T04:49:30.121Z,7.23
2024-02-27T04:51:57.849Z,8.70
2024-02-27T04:54:25.287Z,13.00
2024-02-27T04:56:54.053Z,10.57
2024-02-27T04:59:21.473Z,12.73
2024-02-27T05:01:51.101Z,12.20
2024-02-27T05:04:20.062Z,13.47
2024-02-27T05:06:47.693Z,14.23
2024-02-27T05:09:15.466Z,15.33
2024-02-27T05:11:45.224Z,15.40
2024-02-27T05:14:14.138Z,16.77
2024-02-27T05:16:41.577Z,16.73
2024-02-27T05:19:10.370Z,16.10
2024-02-27T05:21:38.554Z,18.30
2024-02-27T05:24:06.539Z,16.57
2024-02-27T05:26:34.233Z,17.27
2024-02-27T05:29:02.069Z,16.60
2024-02-27T05:31:31.357Z,17.83
2024-02-27T05:33:59.960Z,17.67
2024-02-27T05:36:28.647Z,19.60
2024-02-27T05:38:56.812Z,19.10
2024-02-27T05:41:24.599Z,22.53
2024-02-27T05:43:52.091Z,17.57
2024-02-27T05:46:19.628Z,19.10
2024-02-27T05:48:48.554Z,21.30
2024-02-27T05:51:16.649Z,20.30
2024-02-27T05:53:45.078Z,19.80
2024-02-27T05:56:12.530Z,17.80
2024-02-27T05:58:39.931Z,19.70
2024-02-27T06:01:07.505Z,19.70
2024-02-27T06:03:36.019Z,17.70
2024-02-27T06:06:07.296Z,17.90
2024-02-27T06:08:34.932Z,19.37
2024-02-27T06:11:02.484Z,19.30
2024-02-27T06:13:30.685Z,18.37
2024-02-27T06:15:58.377Z,18.23
2024-02-27T06:18:26.103Z,18.23
2024-02-27T06:21:11.128Z,20.57
2024-02-27T06:23:39.904Z,19.60
2024-02-27T06:26:09.724Z,19.00
2024-02-27T06:28:37.188Z,19.30
2024-02-27T06:31:05.584Z,20.00
2024-02-27T06:33:33.172Z,18.77
2024-02-27T06:36:00.743Z,20.27
2024-02-27T06:38:28.610Z,19.43
2024-02-27T06:40:57.370Z,20.57
2024-02-27T06:43:26.138Z,19.43
2024-02-27T06:45:53.718Z,20.67
2024-02-27T06:48:21.553Z,19.33
2024-02-27T06:50:52.686Z,18.90
2024-02-27T06:53:20.164Z,23.83
2024-02-27T06:55:49.244Z,20.63
2024-02-27T06:58:18.462Z,21.70
2024-02-27T07:00:46.266Z,22.80
2024-02-27T07:03:14.671Z,20.87
2024-02-27T07:05:52.247Z,20.20
2024-02-27T07:08:21.087Z,20.67
2024-02-27T07:10:48.622Z,23.97
2024-02-27T07:13:16.930Z,23.23
2024-02-27T07:15:45.835Z,20.87
2024-02-27T07:18:16.644Z,23.37
2024-02-27T07:20:44.630Z,20.47
2024-02-27T07:23:13.527Z,22.97
2024-02-27T07:25:41.478Z,22.47
2024-02-27T07:28:14.104Z,22.73
2024-02-27T07:30:49.344Z,19.53
2024-02-27T07:33:16.999Z,19.87
2024-02-27T07:35:44.485Z,33.30
2024-02-27T07:38:11.889Z,30.30
2024-02-27T07:40:39.333Z,26.07
2024-02-27T07:43:06.785Z,22.57
2024-02-27T07:45:34.521Z,20.70
2024-02-27T07:48:03.659Z,21.17
2024-02-27T07:50:31.390Z,19.23
2024-02-27T07:53:00.000Z,21.17
2024-02-27T07:55:27.457Z,19.47
2024-02-27T07:57:54.928Z,19.27
2024-02-27T08:00:22.504Z,19.00
2024-02-27T08:02:52.575Z,19.20
2024-02-27T08:05:23.349Z,19.20
2024-02-27T08:07:50.917Z,19.33
2024-02-27T08:10:18.468Z,21.10
2024-02-27T08:12:46.288Z,20.57
2024-02-27T08:15:13.818Z,22.00
2024-02-27T08:17:41.426Z,21.60
2024-02-27T08:20:09.573Z,23.47
2024-02-27T08:22:38.372Z,20.73
2024-02-27T08:25:06.272Z,21.20
2024-02-27T08:27:33.716Z,23.10
2024-02-27T08:30:01.697Z,21.70
2024-02-27T08:32:29.241Z,21.00
2024-02-27T08:34:57.007Z,21.00
2024-02-27T08:37:26.751Z,21.97
2024-02-27T08:39:55.586Z,19.47
2024-02-27T08:42:23.200Z,19.03
2024-02-27T08:44:50.630Z,19.53
2024-02-27T08:47:18.211Z,19.80
2024-02-27T08:49:46.054Z,20.33
2024-02-27T08:52:13.573Z,20.33
2024-02-27T08:54:41.450Z,18.37
2024-02-27T08:57:10.519Z,18.90
2024-02-27T08:59:38.638Z,20.70
2024-02-27T09:02:06.119Z,19.80
2024-02-27T09:04:34.174Z,18.63
2024-02-27T09:07:01.714Z,20.60
2024-02-27T09:09:29.367Z,21.30
2024-02-27T09:11:58.214Z,20.57
2024-02-27T09:14:27.323Z,21.60
2024-02-27T09:16:54.806Z,19.73
2024-02-27T09:19:23.250Z,21.90
2024-02-27T09:21:50.833Z,20.63
2024-02-27T09:24:18.511Z,21.07
2024-02-27T09:26:46.218Z,20.00
2024-02-27T09:29:14.419Z,21.50
2024-02-27T09:31:46.870Z,20.30
2024-02-27T09:34:14.891Z,17.80
2024-02-27T09:36:42.484Z,18.20
2024-02-27T09:39:10.598Z,21.97
2024-02-27T09:41:45.628Z,18.93
2024-02-27T09:44:13.397Z,20.80
2024-02-27T09:46:42.018Z,19.90
2024-02-27T09:49:16.996Z,19.80
2024-02-27T09:51:50.236Z,19.80
2024-02-27T09:54:17.894Z,20.80
2024-02-27T09:56:45.399Z,17.57
2024-02-27T09:59:12.864Z,19.30
2024-02-27T10:01:41.819Z,20.70
2024-02-27T10:04:10.188Z,18.07
2024-02-27T10:06:40.316Z,20.87
2024-02-27T10:09:10.386Z,19.83
2024-02-27T10:11:38.785Z,22.13
2024-02-27T10:14:13.788Z,17.63
2024-02-27T10:16:41.259Z,16.27
2024-02-27T10:19:08.810Z,16.50
2024-02-27T10:21:36.851Z,17.50
2024-02-27T10:24:05.917Z,17.33
2024-02-27T10:26:33.752Z,16.03
2024-02-27T10:29:01.678Z,16.67
2024-02-27T10:31:29.172Z,17.30
2024-02-27T10:33:57.357Z,14.70
2024-02-27T10:36:24.895Z,16.43
2024-02-27T10:38:52.397Z,14.90
2024-02-27T10:41:21.944Z,14.33
2024-02-27T10:43:49.518Z,15.23
2024-02-27T10:46:17.558Z,14.83
2024-02-27T10:48:45.968Z,17.07
2024-02-27T10:51:14.638Z,14.57
2024-02-27T10:53:43.210Z,13.90
2024-02-27T10:56:10.793Z,13.03
2024-02-27T10:58:40.528Z,12.17
2024-02-27T11:01:10.275Z,12.20
2024-02-27T11:03:41.807Z,12.87
2024-02-27T11:06:10.642Z,11.07
2024-02-27T11:08:38.462Z,11.70
2024-02-27T11:11:06.271Z,10.30
2024-02-27T11:13:34.844Z,10.70
2024-02-27T11:16:04.339Z,11.73
2024-02-27T11:18:34.987Z,14.97
2024-02-27T11:21:03.675Z,17.60
2024-02-27T11:23:31.445Z,16.10
2024-02-27T11:25:59.479Z,16.47
2024-02-27T11:28:27.196Z,16.00
2024-02-27T11:30:55.004Z,18.43
2024-02-27T11:33:23.986Z,16.97
2024-02-27T11:35:51.643Z,16.27
2024-02-27T11:38:20.202Z,19.37
2024-02-27T11:40:48.682Z,16.37
2024-02-27T11:43:16.705Z,16.53
2024-02-27T11:45:44.241Z,18.07
2024-02-27T11:48:11.970Z,15.10
2024-02-27T11:50:47.310Z,16.93
2024-02-27T11:53:32.772Z,16.80
2024-02-27T11:56:00.296Z,17.53
2024-02-27T11:58:27.778Z,17.13
2024-02-27T12:00:55.411Z,16.17
2024-02-27T12:03:23.510Z,15.87
2024-02-27T12:05:59.538Z,18.27
2024-02-27T12:08:27.055Z,16.60
2024-02-27T12:10:54.524Z,17.10
2024-02-27T12:13:23.735Z,17.83
2024-02-27T12:15:59.082Z,15.30
2024-02-27T12:18:26.959Z,15.43
2024-02-27T12:20:56.846Z,14.23
2024-02-27T12:23:24.567Z,16.30
2024-02-27T12:25:52.006Z,14.33
2024-02-27T12:28:19.739Z,18.43
2024-02-27T12:30:48.165Z,14.77
2024-02-27T12:33:16.237Z,15.67
2024-02-27T12:35:43.813Z,17.40
2024-02-27T12:38:12.912Z,17.77
2024-02-27T12:40:41.024Z,17.43
2024-02-27T12:43:08.632Z,16.80
2024-02-27T12:45:36.161Z,14.13
2024-02-27T12:48:05.211Z,16.70
2024-02-27T12:50:33.000Z,14.63
2024-02-27T12:53:11.104Z,14.53
2024-02-27T12:55:41.942Z,14.53
2024-02-27T12:58:09.601Z,14.83
2024-02-27T13:00:38.338Z,15.87
2024-02-27T13:03:06.389Z,13.43
2024-02-27T13:05:34.497Z,13.80
2024-02-27T13:08:02.691Z,14.90
2024-02-27T13:10:31.993Z,17.73
2024-02-27T13:13:14.063Z,14.63
2024-02-27T13:15:43.192Z,15.20
2024-02-27T13:18:13.662Z,15.00
2024-02-27T13:20:42.139Z,16.50
2024-02-27T13:23:17.118Z,17.70
2024-02-27T13:25:52.801Z,15.17
2024-02-27T13:28:21.694Z,15.60
2024-02-27T13:30:49.300Z,22.37
2024-02-27T13:33:17.576Z,14.70
2024-02-27T13:35:45.375Z,13.83
2024-02-27T13:38:12.842Z,14.87
2024-02-27T13:40:40.333Z,15.57
2024-02-27T13:43:07.854Z,16.60
2024-02-27T13:45:36.641Z,18.53
2024-02-27T13:48:05.061Z,19.30
2024-02-27T13:50:32.583Z,18.50
2024-02-27T13:53:00.224Z,19.07
2024-02-27T13:55:28.380Z,17.23
2024-02-27T13:57:55.868Z,18.43
2024-02-27T14:00:23.358Z,17.23
2024-02-27T14:02:52.417Z,17.20
2024-02-27T14:05:20.022Z,23.57
2024-02-27T14:07:49.310Z,19.73
2024-02-27T14:10:16.938Z,16.50
2024-02-27T14:12:46.915Z,18.87
2024-02-27T14:15:14.472Z,18.80
2024-02-27T14:17:42.027Z,18.13
2024-02-27T14:20:11.569Z,17.90
2024-02-27T14:22:38.982Z,19.53
2024-02-27T14:25:06.962Z,19.10
2024-02-27T14:27:34.480Z,15.63
2024-02-27T14:30:02.720Z,17.90
2024-02-27T14:32:30.336Z,17.70
2024-02-27T14:34:58.156Z,17.57
2024-02-27T14:37:27.110Z,18.37
2024-02-27T14:39:54.597Z,18.23
2024-02-27T14:42:22.273Z,18.40
2024-02-27T14:44:50.020Z,20.53
2024-02-27T14:47:17.580Z,18.47
2024-02-27T14:49:45.193Z,17.87
2024-02-27T14:52:12.715Z,19.53
2024-02-27T14:54:41.567Z,16.23
2024-02-27T14:57:15.596Z,16.60
2024-02-27T14:59:43.062Z,18.83
2024-02-27T15:02:10.543Z,19.70
2024-02-27T15:04:38.096Z,17.33
2024-02-27T15:07:05.760Z,19.00
2024-02-27T15:09:33.373Z,18.17
2024-02-27T15:12:06.788Z,15.73
2024-02-27T15:14:34.366Z,19.93
2024-02-27T15:17:01.936Z,18.50
2024-02-27T15:19:29.867Z,18.87
2024-02-27T15:21:57.531Z,17.87
2024-02-27T15:24:25.091Z,18.67
2024-02-27T15:26:52.554Z,19.00
2024-02-27T15:29:21.346Z,18.90
2024-02-27T15:31:48.778Z,18.67
2024-02-27T15:34:16.323Z,18.20
2024-02-27T15:36:43.885Z,18.83
2024-02-27T15:39:11.594Z,19.90
2024-02-27T15:41:40.289Z,19.47
2024-02-27T15:44:12.483Z,19.00
2024-02-27T15:46:46.516Z,17.97
2024-02-27T15:49:14.452Z,17.17
2024-02-27T15:51:45.120Z,18.47
2024-02-27T15:54:12.843Z,17.70
2024-02-27T15:56:40.312Z,18.10
2024-02-27T15:59:08.026Z,18.37
2024-02-27T16:01:35.526Z,21.20
2024-02-27T16:04:10.698Z,17.70
2024-02-27T16:06:41.457Z,21.27
2024-02-27T16:09:09.018Z,22.17
2024-02-27T16:11:36.508Z,18.20
2024-02-27T16:14:03.995Z,15.20
2024-02-27T16:16:31.460Z,19.03
2024-02-27T16:18:58.969Z,17.73
2024-02-27T16:21:30.135Z,17.67
2024-02-27T16:23:57.630Z,16.03
2024-02-27T16:26:25.367Z,18.17
2024-02-27T16:28:52.987Z,16.10
2024-02-27T16:31:20.459Z,16.77
2024-02-27T16:33:47.993Z,17.57
2024-02-27T16:36:15.534Z,17.60
2024-02-27T16:38:44.396Z,18.20
2024-02-27T16:41:11.886Z,17.20
2024-02-27T16:43:39.329Z,16.63
2024-02-27T16:46:07.327Z,15.40
2024-02-27T16:48:35.160Z,16.20
2024-02-27T16:51:03.089Z,16.33
2024-02-27T16:53:30.536Z,14.20
2024-02-27T16:55:59.362Z,15.93
2024-02-27T16:58:26.850Z,14.70
2024-02-27T17:00:54.440Z,16.70
2024-02-27T17:03:23.066Z,15.70
2024-02-27T17:05:50.664Z,15.57
2024-02-27T17:08:21.213Z,16.90
2024-02-27T17:10:49.648Z,15.70
2024-02-27T17:13:18.505Z,17.30
2024-02-27T17:15:46.922Z,15.93
2024-02-27T17:18:14.653Z,15.50
2024-02-27T17:20:42.374Z,18.47
2024-02-27T17:23:11.727Z,20.57
2024-02-27T17:25:39.279Z,23.00
2024-02-27T17:28:07.582Z,19.17
2024-02-27T17:30:36.382Z,23.43
2024-02-27T17:33:03.921Z,19.70
2024-02-27T17:35:31.531Z,18.90
2024-02-27T17:37:59.313Z,20.63
2024-02-27T17:40:26.942Z,18.47
2024-02-27T17:42:55.336Z,22.27
2024-02-27T17:45:22.989Z,21.30
2024-02-27T17:47:51.885Z,20.50
2024-02-27T17:50:19.372Z,23.43
2024-02-27T17:52:46.828Z,26.73
2024-02-27T17:55:14.423Z,28.80
2024-02-27T17:57:42.030Z,28.63
2024-02-27T18:00:10.036Z,25.07
2024-02-27T18:02:37.518Z,30.60
2024-02-27T18:05:06.936Z,26.13
2024-02-27T18:07:34.503Z,26.43
2024-02-27T18:10:02.112Z,27.20
2024-02-27T18:12:29.715Z,25.77
2024-02-27T18:14:57.694Z,23.97
2024-02-27T18:17:25.359Z,29.07
2024-02-27T18:19:53.574Z,23.07
2024-02-27T18:22:23.829Z,24.20
2024-02-27T18:24:51.489Z,25.77
2024-02-27T18:27:21.379Z,22.90
2024-02-27T18:29:48.913Z,24.40
2024-02-27T18:32:16.404Z,24.33
2024-02-27T18:34:45.274Z,23.93
2024-02-27T18:37:12.798Z,24.07
2024-02-27T18:39:43.487Z,23.80
2024-02-27T18:42:11.320Z,22.13
2024-02-27T18:44:38.785Z,25.60
2024-02-27T18:47:06.397Z,22.93
2024-02-27T18:49:34.098Z,19.00
2024-02-27T18:52:01.644Z,20.17
2024-02-27T18:54:29.281Z,25.90
2024-02-27T18:56:58.129Z,19.50
2024-02-27T18:59:25.558Z,22.90
2024-02-27T19:01:53.053Z,20.57
2024-02-27T19:04:21.133Z,18.10
2024-02-27T19:06:49.557Z,18.13
2024-02-27T19:09:18.451Z,28.60
2024-02-27T19:11:46.203Z,48.00
2024-02-27T19:14:15.125Z,37.43
2024-02-27T19:16:42.836Z,21.23
2024-02-27T19:19:10.375Z,17.17
2024-02-27T19:21:37.844Z,17.03
2024-02-27T19:24:05.795Z,16.20
2024-02-27T19:26:33.476Z,17.50
2024-02-27T19:29:00.973Z,16.80
2024-02-27T19:31:32.449Z,18.97
2024-02-27T19:33:59.975Z,15.47
2024-02-27T19:36:27.535Z,16.37
2024-02-27T19:38:55.091Z,18.77
2024-02-27T19:41:22.646Z,19.27
2024-02-27T19:43:50.198Z,17.40
2024-02-27T19:46:18.106Z,19.13
2024-02-27T19:48:48.040Z,18.57
2024-02-27T19:51:15.991Z,18.17
2024-02-27T19:53:43.532Z,20.17
2024-02-27T19:56:11.484Z,21.57
2024-02-27T19:58:38.947Z,21.27
2024-02-27T20:01:06.555Z,19.07
2024-02-27T20:03:34.155Z,17.30
2024-02-27T20:06:03.028Z,18.63
2024-02-27T20:08:30.475Z,17.87
2024-02-27T20:10:57.941Z,17.73
2024-02-27T20:13:25.510Z,18.10
2024-02-27T20:15:54.491Z,15.33
2024-02-27T20:18:22.223Z,19.13
2024-02-27T20:20:49.736Z,18.50
2024-02-27T20:23:22.796Z,17.57
2024-02-27T20:25:50.434Z,17.60
2024-02-27T20:28:17.997Z,16.67
2024-02-27T20:30:46.785Z,24.67
2024-02-27T20:33:15.692Z,27.43
2024-02-27T20:35:43.856Z,25.57
2024-02-27T20:38:16.243Z,24.30
2024-02-27T20:40:46.682Z,22.07
2024-02-27T20:43:14.675Z,22.77
2024-02-27T20:45:42.553Z,24.50
2024-02-27T20:48:10.398Z,21.37
2024-02-27T20:50:37.904Z,20.23
2024-02-27T20:53:06.252Z,20.40
2024-02-27T20:55:33.722Z,23.60
2024-02-27T20:58:02.562Z,20.83
2024-02-27T21:00:30.054Z,24.07
2024-02-27T21:02:57.557Z,21.37
2024-02-27T21:05:25.005Z,21.03
2024-02-27T21:07:55.171Z,22.87
2024-02-27T21:10:24.105Z,24.37
2024-02-27T21:12:52.597Z,25.20
2024-02-27T21:15:21.585Z,28.40
2024-02-27T21:17:49.097Z,29.40
2024-02-27T21:20:16.540Z,28.37
2024-02-27T21:22:43.972Z,24.57
2024-02-27T21:25:11.579Z,29.70
2024-02-27T21:27:39.160Z,24.37
2024-02-27T21:30:07.285Z,27.20
2024-02-27T21:32:36.362Z,25.87
2024-02-27T21:35:03.867Z,28.80
2024-02-27T21:37:31.296Z,28.77
2024-02-27T21:39:58.808Z,29.63
2024-02-27T21:42:26.305Z,27.70
2024-02-27T21:44:53.814Z,28.30
2024-02-27T21:47:22.417Z,25.10
2024-02-27T21:49:51.220Z,26.53
2024-02-27T21:52:18.758Z,23.77
2024-02-27T21:54:47.962Z,31.40
2024-02-27T21:57:15.736Z,33.70
2024-02-27T21:59:43.230Z,35.37
2024-02-27T22:02:10.829Z,28.83
2024-02-27T22:04:38.278Z,30.30
2024-02-27T22:07:07.408Z,27.60
2024-02-27T22:09:34.981Z,29.03
2024-02-27T22:12:02.749Z,25.73
2024-02-27T22:14:32.492Z,31.47
2024-02-27T22:17:00.410Z,28.20
2024-02-27T22:19:28.171Z,25.27
2024-02-27T22:21:55.692Z,27.57
2024-02-27T22:24:26.548Z,25.30
2024-02-27T22:26:54.153Z,30.60
2024-02-27T22:29:21.861Z,27.00
2024-02-27T22:31:49.363Z,28.50
2024-02-27T22:34:16.784Z,29.60
2024-02-27T22:36:44.465Z,29.57
2024-02-27T22:39:12.779Z,28.53
2024-02-27T22:41:41.652Z,33.30
2024-02-27T22:44:09.144Z,31.10
2024-02-27T22:46:36.581Z,32.17
2024-02-27T22:49:04.035Z,30.13
2024-02-27T22:51:31.530Z,29.20
2024-02-27T22:53:58.992Z,30.97
2024-02-27T22:56:26.485Z,29.67
2024-02-27T22:58:55.418Z,30.73
2024-02-27T23:01:23.169Z,39.33
2024-02-27T23:03:51.054Z,35.97
2024-02-27T23:06:19.044Z,33.40
2024-02-27T23:08:46.535Z,38.07
2024-02-27T23:11:14.033Z,34.60
2024-02-27T23:13:41.509Z,41.10
2024-02-27T23:16:10.301Z,39.47
2024-02-27T23:18:37.776Z,40.57
2024-02-27T23:21:05.549Z,41.67
2024-02-27T23:23:32.955Z,36.60
2024-02-27T23:26:00.378Z,41.47
2024-02-27T23:28:27.822Z,42.00
2024-02-27T23:30:55.466Z,44.87
2024-02-27T23:33:24.312Z,35.60
2024-02-27T23:35:51.864Z,43.90
2024-02-27T23:38:19.328Z,41.03
2024-02-27T23:40:47.324Z,44.03
2024-02-27T23:43:14.901Z,37.30
2024-02-27T23:45:42.954Z,53.30
2024-02-27T23:48:10.559Z,43.73
2024-02-27T23:50:39.500Z,40.73
2024-02-27T23:53:06.944Z,54.03
2024-02-27T23:55:35.173Z,49.43
2024-02-27T23:58:02.783Z,42.43
